KWYS/WYS METAR and TAF weather

Enter ICAO airport designator
Station Type Date Time Source
KWYS METAR 2019/10/23 21:10 UTC NOAA

KWYS 232110Z AUTO 03008G14KT 10SM SCT050 SCT065 BKN090 01/M09 A3024 RMK AO2


Station Type Date Time Source
KWYS Decoded METAR 2019/10/23 21:10 UTC NOAA

West Yellowstone, MT, United States (KWYS) 44-41N 111-07W
Oct 23, 2019 - 05:10 PM EDT / 2019.10.23 2110 UTC
Wind: from the NNE (030 degrees) at 9 MPH (8 KT) gusting to 16 MPH (14 KT):0
Visibility: 10 mile(s):0
Sky conditions: mostly cloudy
Temperature: 33 F (1 C)
Windchill: 24 F (-4 C):1
Dew Point: 15 F (-9 C)
Relative Humidity: 47%
Pressure (altimeter): 30.24 in. Hg (1024 hPa)
ob: KWYS 232110Z AUTO 03008G14KT 10SM SCT050 SCT065 BKN090 01/M09 A3024 RMK AO2
cycle: 21

Station Type Date Time Source
KWYS TAF 2019/10/23 18:42 UTC NOAA

TAF KWYS 231742Z 2318/2418 36009KT P6SM SCT060
FM240900 VRB03KT P6SM VCFG BKN009
FM241500 00000KT P6SM SCT250

Example: see airport list